sensor_id;sensor_type;location;lat;lon;timestamp;P1;durP1;ratioP1;P2;durP2;ratioP2
84486;SDS011;74710;48.436;10.602;2024-03-23T00:53:44;3.20;;;1.60;;
84486;SDS011;74710;48.436;10.602;2024-03-23T00:56:10;2.90;;;1.35;;
84486;SDS011;74710;48.436;10.602;2024-03-23T00:58:35;4.45;;;1.55;;
84486;SDS011;74710;48.436;10.602;2024-03-23T01:01:01;3.15;;;1.20;;
84486;SDS011;74710;48.436;10.602;2024-03-23T01:03:29;2.47;;;1.15;;
84486;SDS011;74710;48.436;10.602;2024-03-23T01:05:54;3.22;;;1.63;;
84486;SDS011;74710;48.436;10.602;2024-03-23T01:08:20;5.55;;;1.48;;
84486;SDS011;74710;48.436;10.602;2024-03-23T01:10:59;3.97;;;1.80;;
84486;SDS011;74710;48.436;10.602;2024-03-23T01:13:25;3.20;;;1.70;;
84486;SDS011;74710;48.436;10.602;2024-03-23T01:15:51;3.90;;;1.83;;
84486;SDS011;74710;48.436;10.602;2024-03-23T01:18:17;3.08;;;1.48;;
84486;SDS011;74710;48.436;10.602;2024-03-23T01:20:43;2.85;;;1.27;;
84486;SDS011;74710;48.436;10.602;2024-03-23T01:23:09;3.17;;;1.30;;
84486;SDS011;74710;48.436;10.602;2024-03-23T01:25:34;3.30;;;1.67;;
84486;SDS011;74710;48.436;10.602;2024-03-23T01:28:00;2.67;;;1.02;;
84486;SDS011;74710;48.436;10.602;2024-03-23T01:30:25;3.28;;;1.00;;
84486;SDS011;74710;48.436;10.602;2024-03-23T01:32:51;4.30;;;1.23;;
84486;SDS011;74710;48.436;10.602;2024-03-23T01:35:16;2.63;;;1.17;;
84486;SDS011;74710;48.436;10.602;2024-03-23T01:37:42;3.53;;;1.27;;
84486;SDS011;74710;48.436;10.602;2024-03-23T01:40:07;2.85;;;1.45;;
84486;SDS011;74710;48.436;10.602;2024-03-23T01:42:33;2.17;;;1.08;;
84486;SDS011;74710;48.436;10.602;2024-03-23T01:44:58;2.00;;;1.10;;
84486;SDS011;74710;48.436;10.602;2024-03-23T01:47:24;1.67;;;1.15;;
84486;SDS011;74710;48.436;10.602;2024-03-23T01:49:50;3.97;;;1.40;;
84486;SDS011;74710;48.436;10.602;2024-03-23T01:52:16;3.10;;;1.20;;
84486;SDS011;74710;48.436;10.602;2024-03-23T01:54:42;3.35;;;1.38;;
84486;SDS011;74710;48.436;10.602;2024-03-23T01:57:08;1.77;;;0.80;;
84486;SDS011;74710;48.436;10.602;2024-03-23T01:59:33;2.58;;;1.10;;
84486;SDS011;74710;48.436;10.602;2024-03-23T02:01:59;2.70;;;1.17;;
84486;SDS011;74710;48.436;10.602;2024-03-23T02:04:24;2.67;;;0.93;;
84486;SDS011;74710;48.436;10.602;2024-03-23T02:06:50;2.33;;;1.10;;
84486;SDS011;74710;48.436;10.602;2024-03-23T02:09:16;3.10;;;1.55;;
84486;SDS011;74710;48.436;10.602;2024-03-23T02:11:41;3.45;;;1.00;;
84486;SDS011;74710;48.436;10.602;2024-03-23T02:14:07;1.77;;;0.90;;
84486;SDS011;74710;48.436;10.602;2024-03-23T02:16:33;4.95;;;1.35;;
84486;SDS011;74710;48.436;10.602;2024-03-23T02:18:58;3.50;;;1.40;;
84486;SDS011;74710;48.436;10.602;2024-03-23T02:21:24;2.95;;;1.58;;
84486;SDS011;74710;48.436;10.602;2024-03-23T02:23:49;1.80;;;1.00;;
84486;SDS011;74710;48.436;10.602;2024-03-23T02:26:15;2.67;;;0.90;;
84486;SDS011;74710;48.436;10.602;2024-03-23T02:28:42;2.38;;;1.02;;
84486;SDS011;74710;48.436;10.602;2024-03-23T02:31:07;2.05;;;1.02;;
84486;SDS011;74710;48.436;10.602;2024-03-23T02:33:33;3.95;;;1.10;;
84486;SDS011;74710;48.436;10.602;2024-03-23T02:35:59;2.95;;;1.20;;
84486;SDS011;74710;48.436;10.602;2024-03-23T02:38:25;3.00;;;1.30;;
84486;SDS011;74710;48.436;10.602;2024-03-23T02:40:50;3.45;;;1.30;;
84486;SDS011;74710;48.436;10.602;2024-03-23T02:43:16;2.72;;;1.27;;
84486;SDS011;74710;48.436;10.602;2024-03-23T02:45:41;2.08;;;1.00;;
84486;SDS011;74710;48.436;10.602;2024-03-23T02:48:07;3.42;;;1.35;;
84486;SDS011;74710;48.436;10.602;2024-03-23T02:50:33;2.95;;;1.40;;
84486;SDS011;74710;48.436;10.602;2024-03-23T02:52:58;8.27;;;1.88;;
84486;SDS011;74710;48.436;10.602;2024-03-23T02:55:24;3.00;;;1.30;;
84486;SDS011;74710;48.436;10.602;2024-03-23T02:57:49;2.60;;;1.30;;
84486;SDS011;74710;48.436;10.602;2024-03-23T03:00:15;3.70;;;1.30;;
84486;SDS011;74710;48.436;10.602;2024-03-23T03:02:41;3.20;;;1.25;;
84486;SDS011;74710;48.436;10.602;2024-03-23T03:05:06;2.92;;;1.20;;
84486;SDS011;74710;48.436;10.602;2024-03-23T03:07:34;4.78;;;1.50;;
84486;SDS011;74710;48.436;10.602;2024-03-23T03:09:59;5.30;;;1.50;;
84486;SDS011;74710;48.436;10.602;2024-03-23T03:12:25;2.53;;;1.30;;
84486;SDS011;74710;48.436;10.602;2024-03-23T03:14:50;2.25;;;1.25;;
84486;SDS011;74710;48.436;10.602;2024-03-23T03:17:16;3.63;;;1.20;;
84486;SDS011;74710;48.436;10.602;2024-03-23T03:19:42;4.43;;;1.40;;
84486;SDS011;74710;48.436;10.602;2024-03-23T03:22:07;3.25;;;1.20;;
84486;SDS011;74710;48.436;10.602;2024-03-23T03:24:33;3.13;;;1.05;;
84486;SDS011;74710;48.436;10.602;2024-03-23T03:26:59;1.98;;;1.10;;
84486;SDS011;74710;48.436;10.602;2024-03-23T03:29:24;3.33;;;1.50;;
84486;SDS011;74710;48.436;10.602;2024-03-23T03:31:50;2.80;;;1.30;;
84486;SDS011;74710;48.436;10.602;2024-03-23T03:34:16;3.70;;;1.30;;
84486;SDS011;74710;48.436;10.602;2024-03-23T03:36:42;2.85;;;1.38;;
84486;SDS011;74710;48.436;10.602;2024-03-23T03:39:07;2.85;;;1.20;;
84486;SDS011;74710;48.436;10.602;2024-03-23T03:41:33;2.13;;;1.08;;
84486;SDS011;74710;48.436;10.602;2024-03-23T03:43:58;5.90;;;1.13;;
84486;SDS011;74710;48.436;10.602;2024-03-23T03:46:30;3.35;;;1.10;;
84486;SDS011;74710;48.436;10.602;2024-03-23T03:48:56;4.10;;;1.25;;
84486;SDS011;74710;48.436;10.602;2024-03-23T03:51:21;2.45;;;1.05;;
84486;SDS011;74710;48.436;10.602;2024-03-23T03:53:47;3.63;;;1.25;;
84486;SDS011;74710;48.436;10.602;2024-03-23T03:56:12;3.97;;;1.20;;
84486;SDS011;74710;48.436;10.602;2024-03-23T03:58:38;2.80;;;1.30;;
84486;SDS011;74710;48.436;10.602;2024-03-23T04:01:03;2.25;;;1.00;;
84486;SDS011;74710;48.436;10.602;2024-03-23T04:03:29;3.60;;;1.15;;
84486;SDS011;74710;48.436;10.602;2024-03-23T04:05:54;3.72;;;1.25;;
84486;SDS011;74710;48.436;10.602;2024-03-23T04:08:20;2.25;;;1.10;;
84486;SDS011;74710;48.436;10.602;2024-03-23T04:10:46;2.55;;;0.85;;
84486;SDS011;74710;48.436;10.602;2024-03-23T04:13:12;2.72;;;1.02;;
84486;SDS011;74710;48.436;10.602;2024-03-23T04:15:37;2.25;;;1.13;;
84486;SDS011;74710;48.436;10.602;2024-03-23T04:18:03;3.03;;;1.55;;
84486;SDS011;74710;48.436;10.602;2024-03-23T04:20:29;3.13;;;0.98;;
84486;SDS011;74710;48.436;10.602;2024-03-23T04:22:54;2.83;;;1.25;;
84486;SDS011;74710;48.436;10.602;2024-03-23T04:25:20;3.88;;;1.17;;
84486;SDS011;74710;48.436;10.602;2024-03-23T04:27:45;2.80;;;1.17;;
84486;SDS011;74710;48.436;10.602;2024-03-23T04:30:11;2.60;;;1.30;;
84486;SDS011;74710;48.436;10.602;2024-03-23T04:32:37;3.58;;;1.17;;
84486;SDS011;74710;48.436;10.602;2024-03-23T04:35:03;3.83;;;1.48;;
84486;SDS011;74710;48.436;10.602;2024-03-23T04:37:32;2.53;;;0.90;;
84486;SDS011;74710;48.436;10.602;2024-03-23T04:39:58;2.45;;;1.17;;
84486;SDS011;74710;48.436;10.602;2024-03-23T04:42:23;4.22;;;1.50;;
84486;SDS011;74710;48.436;10.602;2024-03-23T04:44:49;2.40;;;1.15;;
84486;SDS011;74710;48.436;10.602;2024-03-23T04:47:14;5.03;;;1.10;;
84486;SDS011;74710;48.436;10.602;2024-03-23T04:49:40;2.90;;;1.00;;
84486;SDS011;74710;48.436;10.602;2024-03-23T04:52:05;2.67;;;1.27;;
84486;SDS011;74710;48.436;10.602;2024-03-23T04:54:31;2.28;;;1.00;;
84486;SDS011;74710;48.436;10.602;2024-03-23T04:56:59;3.00;;;1.02;;
84486;SDS011;74710;48.436;10.602;2024-03-23T04:59:25;3.35;;;1.13;;
84486;SDS011;74710;48.436;10.602;2024-03-23T05:01:51;3.08;;;1.58;;
84486;SDS011;74710;48.436;10.602;2024-03-23T05:04:16;14.40;;;5.30;;
84486;SDS011;74710;48.436;10.602;2024-03-23T05:06:42;3.78;;;1.92;;
84486;SDS011;74710;48.436;10.602;2024-03-23T05:09:07;4.45;;;1.88;;
84486;SDS011;74710;48.436;10.602;2024-03-23T05:11:37;2.15;;;1.35;;
84486;SDS011;74710;48.436;10.602;2024-03-23T05:14:02;2.78;;;1.33;;
84486;SDS011;74710;48.436;10.602;2024-03-23T05:16:28;2.97;;;1.40;;
84486;SDS011;74710;48.436;10.602;2024-03-23T05:18:54;3.25;;;1.50;;
84486;SDS011;74710;48.436;10.602;2024-03-23T05:21:19;4.78;;;1.20;;
84486;SDS011;74710;48.436;10.602;2024-03-23T05:23:45;6.97;;;1.00;;
84486;SDS011;74710;48.436;10.602;2024-03-23T05:26:10;4.00;;;1.30;;
84486;SDS011;74710;48.436;10.602;2024-03-23T05:28:36;2.42;;;1.00;;
84486;SDS011;74710;48.436;10.602;2024-03-23T05:31:01;2.72;;;0.85;;
84486;SDS011;74710;48.436;10.602;2024-03-23T05:33:27;2.13;;;1.10;;
84486;SDS011;74710;48.436;10.602;2024-03-23T05:35:56;4.03;;;1.05;;
84486;SDS011;74710;48.436;10.602;2024-03-23T05:38:22;1.90;;;0.90;;
84486;SDS011;74710;48.436;10.602;2024-03-23T05:40:57;2.92;;;1.17;;
84486;SDS011;74710;48.436;10.602;2024-03-23T05:43:23;3.28;;;1.02;;
84486;SDS011;74710;48.436;10.602;2024-03-23T05:45:58;3.20;;;0.85;;
84486;SDS011;74710;48.436;10.602;2024-03-23T05:48:24;2.47;;;0.93;;
84486;SDS011;74710;48.436;10.602;2024-03-23T05:50:50;3.45;;;1.20;;
84486;SDS011;74710;48.436;10.602;2024-03-23T05:53:16;3.08;;;0.88;;
84486;SDS011;74710;48.436;10.602;2024-03-23T05:55:42;2.22;;;1.20;;
84486;SDS011;74710;48.436;10.602;2024-03-23T05:58:07;1.98;;;0.65;;
84486;SDS011;74710;48.436;10.602;2024-03-23T06:00:33;1.48;;;0.77;;
84486;SDS011;74710;48.436;10.602;2024-03-23T06:02:59;3.10;;;0.90;;
84486;SDS011;74710;48.436;10.602;2024-03-23T06:05:24;1.85;;;1.05;;
84486;SDS011;74710;48.436;10.602;2024-03-23T06:07:50;2.33;;;0.95;;
84486;SDS011;74710;48.436;10.602;2024-03-23T06:10:15;4.30;;;1.13;;
84486;SDS011;74710;48.436;10.602;2024-03-23T06:12:41;2.60;;;1.02;;
84486;SDS011;74710;48.436;10.602;2024-03-23T06:15:07;3.42;;;1.30;;
84486;SDS011;74710;48.436;10.602;2024-03-23T06:17:38;2.85;;;1.23;;
84486;SDS011;74710;48.436;10.602;2024-03-23T06:20:04;3.03;;;1.00;;
84486;SDS011;74710;48.436;10.602;2024-03-23T06:22:31;2.95;;;1.17;;
84486;SDS011;74710;48.436;10.602;2024-03-23T06:24:57;1.30;;;0.65;;
84486;SDS011;74710;48.436;10.602;2024-03-23T06:27:22;2.83;;;1.10;;
84486;SDS011;74710;48.436;10.602;2024-03-23T06:29:48;2.20;;;1.00;;
84486;SDS011;74710;48.436;10.602;2024-03-23T06:32:13;3.45;;;1.15;;
84486;SDS011;74710;48.436;10.602;2024-03-23T06:34:41;2.17;;;1.10;;
84486;SDS011;74710;48.436;10.602;2024-03-23T06:37:06;3.88;;;0.80;;
84486;SDS011;74710;48.436;10.602;2024-03-23T06:39:32;4.97;;;0.90;;
84486;SDS011;74710;48.436;10.602;2024-03-23T06:41:58;4.78;;;1.17;;
84486;SDS011;74710;48.436;10.602;2024-03-23T06:44:23;3.35;;;1.20;;
84486;SDS011;74710;48.436;10.602;2024-03-23T06:46:49;2.03;;;0.85;;
84486;SDS011;74710;48.436;10.602;2024-03-23T06:49:15;2.35;;;0.98;;
84486;SDS011;74710;48.436;10.602;2024-03-23T06:51:41;3.20;;;0.90;;
84486;SDS011;74710;48.436;10.602;2024-03-23T06:54:06;2.22;;;0.90;;
84486;SDS011;74710;48.436;10.602;2024-03-23T06:56:32;1.98;;;0.90;;
84486;SDS011;74710;48.436;10.602;2024-03-23T06:58:57;1.70;;;0.80;;
84486;SDS011;74710;48.436;10.602;2024-03-23T07:01:23;2.63;;;0.98;;
84486;SDS011;74710;48.436;10.602;2024-03-23T07:03:48;6.40;;;1.58;;
84486;SDS011;74710;48.436;10.602;2024-03-23T07:06:14;2.28;;;0.90;;
84486;SDS011;74710;48.436;10.602;2024-03-23T07:08:39;1.48;;;0.50;;
84486;SDS011;74710;48.436;10.602;2024-03-23T07:11:05;2.40;;;0.70;;
84486;SDS011;74710;48.436;10.602;2024-03-23T07:13:30;2.33;;;1.02;;
84486;SDS011;74710;48.436;10.602;2024-03-23T07:15:56;4.05;;;1.00;;
84486;SDS011;74710;48.436;10.602;2024-03-23T07:18:22;3.17;;;1.58;;
84486;SDS011;74710;48.436;10.602;2024-03-23T07:20:57;2.33;;;1.02;;
84486;SDS011;74710;48.436;10.602;2024-03-23T07:23:23;3.72;;;1.70;;
84486;SDS011;74710;48.436;10.602;2024-03-23T07:25:59;3.00;;;1.10;;
84486;SDS011;74710;48.436;10.602;2024-03-23T07:28:24;4.32;;;1.30;;
84486;SDS011;74710;48.436;10.602;2024-03-23T07:33:28;3.00;;;1.30;;
84486;SDS011;74710;48.436;10.602;2024-03-23T07:35:53;2.75;;;1.33;;
84486;SDS011;74710;48.436;10.602;2024-03-23T07:38:19;2.95;;;1.10;;
84486;SDS011;74710;48.436;10.602;2024-03-23T07:40:44;3.42;;;0.93;;
84486;SDS011;74710;48.436;10.602;2024-03-23T07:43:10;4.65;;;1.00;;
84486;SDS011;74710;48.436;10.602;2024-03-23T07:45:35;1.88;;;0.95;;
84486;SDS011;74710;48.436;10.602;2024-03-23T07:48:03;2.78;;;1.23;;
84486;SDS011;74710;48.436;10.602;2024-03-23T07:50:28;1.92;;;0.90;;
84486;SDS011;74710;48.436;10.602;2024-03-23T07:52:54;4.00;;;1.48;;
84486;SDS011;74710;48.436;10.602;2024-03-23T07:55:19;2.00;;;0.98;;
84486;SDS011;74710;48.436;10.602;2024-03-23T07:57:46;3.38;;;1.63;;
84486;SDS011;74710;48.436;10.602;2024-03-23T08:00:12;2.83;;;1.15;;
84486;SDS011;74710;48.436;10.602;2024-03-23T08:02:38;3.13;;;1.45;;
84486;SDS011;74710;48.436;10.602;2024-03-23T08:05:04;4.43;;;1.33;;
84486;SDS011;74710;48.436;10.602;2024-03-23T08:07:30;2.28;;;1.13;;
84486;SDS011;74710;48.436;10.602;2024-03-23T08:09:55;1.75;;;0.70;;
84486;SDS011;74710;48.436;10.602;2024-03-23T08:12:21;2.03;;;1.08;;
84486;SDS011;74710;48.436;10.602;2024-03-23T08:14:46;2.25;;;0.77;;
84486;SDS011;74710;48.436;10.602;2024-03-23T08:17:12;1.70;;;0.65;;
84486;SDS011;74710;48.436;10.602;2024-03-23T08:19:37;2.17;;;0.73;;
84486;SDS011;74710;48.436;10.602;2024-03-23T08:22:03;2.47;;;1.00;;
84486;SDS011;74710;48.436;10.602;2024-03-23T08:24:28;2.30;;;1.05;;
84486;SDS011;74710;48.436;10.602;2024-03-23T08:26:55;2.33;;;0.95;;
84486;SDS011;74710;48.436;10.602;2024-03-23T08:29:21;1.95;;;0.70;;
84486;SDS011;74710;48.436;10.602;2024-03-23T08:31:46;2.38;;;0.80;;
84486;SDS011;74710;48.436;10.602;2024-03-23T08:34:12;2.00;;;0.70;;
84486;SDS011;74710;48.436;10.602;2024-03-23T08:36:37;1.38;;;0.60;;
84486;SDS011;74710;48.436;10.602;2024-03-23T08:39:03;1.45;;;0.32;;
84486;SDS011;74710;48.436;10.602;2024-03-23T08:41:28;0.98;;;0.30;;
84486;SDS011;74710;48.436;10.602;2024-03-23T08:43:54;1.17;;;0.32;;
84486;SDS011;74710;48.436;10.602;2024-03-23T08:46:19;1.65;;;0.60;;
84486;SDS011;74710;48.436;10.602;2024-03-23T08:48:45;1.15;;;0.32;;
84486;SDS011;74710;48.436;10.602;2024-03-23T08:51:12;1.13;;;0.30;;
84486;SDS011;74710;48.436;10.602;2024-03-23T08:53:38;0.50;;;0.20;;
84486;SDS011;74710;48.436;10.602;2024-03-23T08:56:04;1.17;;;0.38;;
84486;SDS011;74710;48.436;10.602;2024-03-23T08:58:31;0.80;;;0.10;;
84486;SDS011;74710;48.436;10.602;2024-03-23T09:01:03;3.22;;;0.22;;
84486;SDS011;74710;48.436;10.602;2024-03-23T09:03:28;0.90;;;0.25;;
84486;SDS011;74710;48.436;10.602;2024-03-23T09:05:54;1.70;;;0.45;;
84486;SDS011;74710;48.436;10.602;2024-03-23T09:08:20;0.77;;;0.20;;
84486;SDS011;74710;48.436;10.602;2024-03-23T09:10:46;0.40;;;0.10;;
84486;SDS011;74710;48.436;10.602;2024-03-23T09:13:12;1.35;;;0.40;;
84486;SDS011;74710;48.436;10.602;2024-03-23T09:15:45;0.93;;;0.20;;
84486;SDS011;74710;48.436;10.602;2024-03-23T09:18:10;1.05;;;0.20;;
84486;SDS011;74710;48.436;10.602;2024-03-23T09:20:36;1.00;;;0.30;;
84486;SDS011;74710;48.436;10.602;2024-03-23T09:23:01;3.25;;;1.10;;
84486;SDS011;74710;48.436;10.602;2024-03-23T09:25:27;0.75;;;0.30;;
84486;SDS011;74710;48.436;10.602;2024-03-23T09:27:52;1.38;;;0.65;;
84486;SDS011;74710;48.436;10.602;2024-03-23T09:30:18;1.42;;;0.68;;
84486;SDS011;74710;48.436;10.602;2024-03-23T09:32:45;0.75;;;0.30;;
84486;SDS011;74710;48.436;10.602;2024-03-23T09:35:11;0.80;;;0.15;;
84486;SDS011;74710;48.436;10.602;2024-03-23T09:37:37;0.40;;;0.10;;
84486;SDS011;74710;48.436;10.602;2024-03-23T09:40:05;1.27;;;0.38;;
84486;SDS011;74710;48.436;10.602;2024-03-23T09:42:32;0.85;;;0.30;;
84486;SDS011;74710;48.436;10.602;2024-03-23T09:44:58;0.40;;;0.10;;
84486;SDS011;74710;48.436;10.602;2024-03-23T09:47:24;0.20;;;0.00;;
84486;SDS011;74710;48.436;10.602;2024-03-23T09:49:50;0.20;;;0.08;;
84486;SDS011;74710;48.436;10.602;2024-03-23T09:52:16;0.10;;;0.00;;
84486;SDS011;74710;48.436;10.602;2024-03-23T09:54:41;2.20;;;0.90;;
84486;SDS011;74710;48.436;10.602;2024-03-23T09:57:07;7.70;;;2.40;;
84486;SDS011;74710;48.436;10.602;2024-03-23T09:59:33;4.35;;;1.02;;
84486;SDS011;74710;48.436;10.602;2024-03-23T10:02:00;0.98;;;0.22;;
84486;SDS011;74710;48.436;10.602;2024-03-23T10:04:39;1.85;;;0.10;;
84486;SDS011;74710;48.436;10.602;2024-03-23T10:09:37;0.98;;;0.20;;
84486;SDS011;74710;48.436;10.602;2024-03-23T10:12:09;2.53;;;0.20;;
84486;SDS011;74710;48.436;10.602;2024-03-23T10:14:35;1.27;;;0.20;;
84486;SDS011;74710;48.436;10.602;2024-03-23T10:17:11;0.90;;;0.17;;
84486;SDS011;74710;48.436;10.602;2024-03-23T10:19:41;0.90;;;0.20;;
84486;SDS011;74710;48.436;10.602;2024-03-23T10:22:08;0.52;;;0.10;;
84486;SDS011;74710;48.436;10.602;2024-03-23T10:24:33;1.27;;;0.10;;
84486;SDS011;74710;48.436;10.602;2024-03-23T10:26:59;0.75;;;0.20;;
84486;SDS011;74710;48.436;10.602;2024-03-23T10:29:25;0.70;;;0.20;;
84486;SDS011;74710;48.436;10.602;2024-03-23T10:31:52;1.83;;;0.35;;
84486;SDS011;74710;48.436;10.602;2024-03-23T10:34:25;2.33;;;0.20;;
84486;SDS011;74710;48.436;10.602;2024-03-23T10:36:50;1.10;;;0.30;;
84486;SDS011;74710;48.436;10.602;2024-03-23T10:39:18;4.03;;;0.35;;
84486;SDS011;74710;48.436;10.602;2024-03-23T10:41:44;1.45;;;0.38;;
84486;SDS011;74710;48.436;10.602;2024-03-23T10:44:11;2.38;;;0.40;;
84486;SDS011;74710;48.436;10.602;2024-03-23T10:46:37;1.45;;;0.40;;
84486;SDS011;74710;48.436;10.602;2024-03-23T10:49:03;1.88;;;0.50;;
84486;SDS011;74710;48.436;10.602;2024-03-23T10:51:28;1.70;;;0.40;;
84486;SDS011;74710;48.436;10.602;2024-03-23T10:53:54;1.88;;;0.30;;
84486;SDS011;74710;48.436;10.602;2024-03-23T10:56:21;1.77;;;0.52;;
84486;SDS011;74710;48.436;10.602;2024-03-23T10:58:47;1.52;;;0.40;;
84486;SDS011;74710;48.436;10.602;2024-03-23T11:01:14;2.03;;;0.65;;
84486;SDS011;74710;48.436;10.602;2024-03-23T11:03:47;2.60;;;0.43;;
84486;SDS011;74710;48.436;10.602;2024-03-23T11:06:33;1.80;;;0.50;;
84486;SDS011;74710;48.436;10.602;2024-03-23T11:08:58;3.80;;;0.40;;
84486;SDS011;74710;48.436;10.602;2024-03-23T11:11:23;1.67;;;0.70;;
84486;SDS011;74710;48.436;10.602;2024-03-23T11:13:50;2.60;;;0.68;;
84486;SDS011;74710;48.436;10.602;2024-03-23T11:16:17;2.33;;;0.77;;
84486;SDS011;74710;48.436;10.602;2024-03-23T11:18:46;1.60;;;0.82;;
84486;SDS011;74710;48.436;10.602;2024-03-23T11:21:51;1.88;;;0.55;;
84486;SDS011;74710;48.436;10.602;2024-03-23T11:26:52;3.25;;;0.40;;
84486;SDS011;74710;48.436;10.602;2024-03-23T11:29:18;2.53;;;0.50;;
84486;SDS011;74710;48.436;10.602;2024-03-23T11:31:50;3.88;;;0.50;;
84486;SDS011;74710;48.436;10.602;2024-03-23T11:34:16;3.80;;;0.95;;
84486;SDS011;74710;48.436;10.602;2024-03-23T11:36:42;4.10;;;0.73;;
84486;SDS011;74710;48.436;10.602;2024-03-23T11:39:14;3.55;;;0.85;;
84486;SDS011;74710;48.436;10.602;2024-03-23T11:41:51;4.60;;;0.63;;
84486;SDS011;74710;48.436;10.602;2024-03-23T11:44:18;2.72;;;0.70;;
84486;SDS011;74710;48.436;10.602;2024-03-23T11:46:43;1.77;;;0.90;;
84486;SDS011;74710;48.436;10.602;2024-03-23T11:49:25;1.70;;;0.52;;
84486;SDS011;74710;48.436;10.602;2024-03-23T11:51:52;2.13;;;0.70;;
84486;SDS011;74710;48.436;10.602;2024-03-23T11:54:23;2.97;;;1.00;;
84486;SDS011;74710;48.436;10.602;2024-03-23T11:56:58;2.00;;;0.90;;
84486;SDS011;74710;48.436;10.602;2024-03-23T11:59:39;5.70;;;1.00;;
84486;SDS011;74710;48.436;10.602;2024-03-23T12:02:09;5.82;;;1.00;;
84486;SDS011;74710;48.436;10.602;2024-03-23T12:04:36;3.15;;;1.15;;
84486;SDS011;74710;48.436;10.602;2024-03-23T12:07:12;4.18;;;1.10;;
84486;SDS011;74710;48.436;10.602;2024-03-23T12:09:38;6.05;;;1.25;;
84486;SDS011;74710;48.436;10.602;2024-03-23T12:14:32;4.70;;;1.27;;
84486;SDS011;74710;48.436;10.602;2024-03-23T12:17:07;3.33;;;0.90;;
84486;SDS011;74710;48.436;10.602;2024-03-23T12:19:32;4.47;;;1.40;;
84486;SDS011;74710;48.436;10.602;2024-03-23T12:21:58;4.88;;;1.60;;
84486;SDS011;74710;48.436;10.602;2024-03-23T12:24:23;3.58;;;0.95;;
84486;SDS011;74710;48.436;10.602;2024-03-23T12:26:50;3.88;;;1.33;;
84486;SDS011;74710;48.436;10.602;2024-03-23T12:29:15;10.27;;;1.45;;
84486;SDS011;74710;48.436;10.602;2024-03-23T12:31:41;2.17;;;1.05;;
84486;SDS011;74710;48.436;10.602;2024-03-23T12:34:06;2.08;;;0.65;;
84486;SDS011;74710;48.436;10.602;2024-03-23T12:36:32;3.80;;;0.77;;
84486;SDS011;74710;48.436;10.602;2024-03-23T12:38:57;4.30;;;0.90;;
84486;SDS011;74710;48.436;10.602;2024-03-23T12:41:23;2.85;;;0.63;;
84486;SDS011;74710;48.436;10.602;2024-03-23T12:43:48;3.05;;;0.88;;
84486;SDS011;74710;48.436;10.602;2024-03-23T12:46:14;3.72;;;0.95;;
84486;SDS011;74710;48.436;10.602;2024-03-23T12:48:40;3.63;;;1.02;;
84486;SDS011;74710;48.436;10.602;2024-03-23T12:51:07;3.88;;;1.05;;
84486;SDS011;74710;48.436;10.602;2024-03-23T12:53:33;6.00;;;1.25;;
84486;SDS011;74710;48.436;10.602;2024-03-23T12:55:58;4.20;;;0.60;;
84486;SDS011;74710;48.436;10.602;2024-03-23T12:58:24;3.58;;;1.00;;
84486;SDS011;74710;48.436;10.602;2024-03-23T13:00:49;4.32;;;1.27;;
84486;SDS011;74710;48.436;10.602;2024-03-23T13:03:15;2.95;;;0.60;;
84486;SDS011;74710;48.436;10.602;2024-03-23T13:05:43;2.08;;;0.40;;
84486;SDS011;74710;48.436;10.602;2024-03-23T13:08:09;1.70;;;0.60;;
84486;SDS011;74710;48.436;10.602;2024-03-23T13:10:34;2.90;;;0.75;;
84486;SDS011;74710;48.436;10.602;2024-03-23T13:13:00;2.13;;;0.50;;
84486;SDS011;74710;48.436;10.602;2024-03-23T13:15:25;2.40;;;0.47;;
84486;SDS011;74710;48.436;10.602;2024-03-23T13:17:51;2.35;;;0.70;;
84486;SDS011;74710;48.436;10.602;2024-03-23T13:20:17;3.33;;;0.82;;
84486;SDS011;74710;48.436;10.602;2024-03-23T13:22:43;2.72;;;0.90;;
84486;SDS011;74710;48.436;10.602;2024-03-23T13:25:08;3.28;;;0.77;;
84486;SDS011;74710;48.436;10.602;2024-03-23T13:27:34;5.80;;;1.13;;
84486;SDS011;74710;48.436;10.602;2024-03-23T13:29:59;28.85;;;9.23;;
84486;SDS011;74710;48.436;10.602;2024-03-23T13:32:25;22.95;;;7.55;;
84486;SDS011;74710;48.436;10.602;2024-03-23T13:34:51;8.43;;;3.03;;
84486;SDS011;74710;48.436;10.602;2024-03-23T13:37:16;5.88;;;2.53;;
84486;SDS011;74710;48.436;10.602;2024-03-23T13:39:42;7.00;;;2.95;;
84486;SDS011;74710;48.436;10.602;2024-03-23T13:42:07;4.53;;;1.58;;
84486;SDS011;74710;48.436;10.602;2024-03-23T13:44:34;3.15;;;0.90;;
84486;SDS011;74710;48.436;10.602;2024-03-23T13:46:59;2.13;;;0.50;;
84486;SDS011;74710;48.436;10.602;2024-03-23T13:49:29;1.77;;;0.70;;
84486;SDS011;74710;48.436;10.602;2024-03-23T13:51:55;1.60;;;0.35;;
84486;SDS011;74710;48.436;10.602;2024-03-23T13:54:21;2.20;;;0.50;;
84486;SDS011;74710;48.436;10.602;2024-03-23T13:56:50;4.93;;;0.60;;
84486;SDS011;74710;48.436;10.602;2024-03-23T13:59:16;3.58;;;1.00;;
84486;SDS011;74710;48.436;10.602;2024-03-23T14:01:42;5.35;;;1.60;;
84486;SDS011;74710;48.436;10.602;2024-03-23T14:04:08;5.00;;;1.38;;
84486;SDS011;74710;48.436;10.602;2024-03-23T14:06:33;4.50;;;1.67;;
84486;SDS011;74710;48.436;10.602;2024-03-23T14:08:59;2.30;;;0.77;;
84486;SDS011;74710;48.436;10.602;2024-03-23T14:11:24;3.95;;;1.60;;
84486;SDS011;74710;48.436;10.602;2024-03-23T14:13:52;3.15;;;1.30;;
84486;SDS011;74710;48.436;10.602;2024-03-23T14:16:18;4.18;;;1.38;;
84486;SDS011;74710;48.436;10.602;2024-03-23T14:18:46;2.55;;;0.88;;
84486;SDS011;74710;48.436;10.602;2024-03-23T14:21:11;3.58;;;0.73;;
84486;SDS011;74710;48.436;10.602;2024-03-23T14:23:37;7.63;;;2.03;;
84486;SDS011;74710;48.436;10.602;2024-03-23T14:26:02;3.22;;;1.15;;
84486;SDS011;74710;48.436;10.602;2024-03-23T14:28:28;4.15;;;1.33;;
84486;SDS011;74710;48.436;10.602;2024-03-23T14:30:54;2.35;;;0.88;;
84486;SDS011;74710;48.436;10.602;2024-03-23T14:33:20;7.65;;;1.10;;
84486;SDS011;74710;48.436;10.602;2024-03-23T14:35:52;6.10;;;1.23;;
84486;SDS011;74710;48.436;10.602;2024-03-23T14:38:18;4.63;;;1.23;;
84486;SDS011;74710;48.436;10.602;2024-03-23T14:40:45;3.83;;;0.80;;
84486;SDS011;74710;48.436;10.602;2024-03-23T14:43:10;3.78;;;0.60;;
84486;SDS011;74710;48.436;10.602;2024-03-23T14:45:36;8.23;;;1.00;;
84486;SDS011;74710;48.436;10.602;2024-03-23T14:48:02;3.55;;;1.10;;
84486;SDS011;74710;48.436;10.602;2024-03-23T14:50:27;4.82;;;1.08;;
84486;SDS011;74710;48.436;10.602;2024-03-23T14:52:53;3.30;;;0.68;;
84486;SDS011;74710;48.436;10.602;2024-03-23T14:55:18;9.05;;;1.15;;
84486;SDS011;74710;48.436;10.602;2024-03-23T14:57:44;3.45;;;0.70;;
84486;SDS011;74710;48.436;10.602;2024-03-23T15:00:10;2.78;;;0.52;;
84486;SDS011;74710;48.436;10.602;2024-03-23T15:02:37;2.63;;;0.30;;
84486;SDS011;74710;48.436;10.602;2024-03-23T15:05:03;2.65;;;0.70;;
84486;SDS011;74710;48.436;10.602;2024-03-23T15:07:30;5.22;;;0.68;;
84486;SDS011;74710;48.436;10.602;2024-03-23T15:09:55;3.80;;;0.68;;
84486;SDS011;74710;48.436;10.602;2024-03-23T15:12:21;4.25;;;0.93;;
84486;SDS011;74710;48.436;10.602;2024-03-23T15:14:47;3.28;;;0.40;;
84486;SDS011;74710;48.436;10.602;2024-03-23T15:17:12;3.13;;;0.55;;
84486;SDS011;74710;48.436;10.602;2024-03-23T15:19:38;1.38;;;0.32;;
84486;SDS011;74710;48.436;10.602;2024-03-23T15:22:04;6.85;;;2.67;;
84486;SDS011;74710;48.436;10.602;2024-03-23T15:24:29;9.13;;;2.72;;
84486;SDS011;74710;48.436;10.602;2024-03-23T15:26:55;9.52;;;2.95;;
84486;SDS011;74710;48.436;10.602;2024-03-23T15:29:21;5.45;;;2.08;;
84486;SDS011;74710;48.436;10.602;2024-03-23T15:31:47;2.65;;;0.47;;